Saint Anthony, Idaho
Current Conditions -  °F | °C
As of 5:01 AM on Wednesday 28 Jan 2015 (Local Time) from KRXE Reporting Station
Light Rain Light Rain  
Wind Chill: 46°   Ceiling: 200
Heat Index: 49°   Visibility: 1.7mi
Dew Point: 35°   Wind: 7mph
Humidity: 59%   Direction: 250°WSW
Pressure: 30.17"   Gusts: NA
Location:  43.97°N, 111.68°W
Report Text: KRXE 281201Z AUTO 25006KT 1 3/4SM -RA OVC002 09/02 A3017 RMK AO2 P0000 T00940017
Loading
Personal Weather Stations






























Interactive Weather Map New forecast layout! Learn more

10-Day Weather Forecast

Advertisements
Track Severe Weather on mobile